sensor_id;sensor_type;location;lat;lon;timestamp;temperature;humidity
57390;DHT22;43217;52.694;6.214;2024-02-26T00:01:51;4.50;99.90
57390;DHT22;43217;52.694;6.214;2024-02-26T00:04:18;4.40;99.90
57390;DHT22;43217;52.694;6.214;2024-02-26T00:06:43;4.40;99.90
57390;DHT22;43217;52.694;6.214;2024-02-26T00:09:10;4.40;99.90
57390;DHT22;43217;52.694;6.214;2024-02-26T00:11:36;4.40;99.90
57390;DHT22;43217;52.694;6.214;2024-02-26T00:14:02;4.40;99.90
57390;DHT22;43217;52.694;6.214;2024-02-26T00:16:27;4.40;99.90
57390;DHT22;43217;52.694;6.214;2024-02-26T00:18:53;4.40;99.90
57390;DHT22;43217;52.694;6.214;2024-02-26T00:21:19;4.40;99.90
57390;DHT22;43217;52.694;6.214;2024-02-26T00:23:44;4.40;99.90
57390;DHT22;43217;52.694;6.214;2024-02-26T00:26:10;4.40;99.90
57390;DHT22;43217;52.694;6.214;2024-02-26T00:28:36;4.40;99.90
57390;DHT22;43217;52.694;6.214;2024-02-26T00:31:02;4.40;99.90
57390;DHT22;43217;52.694;6.214;2024-02-26T00:33:28;4.30;99.90
57390;DHT22;43217;52.694;6.214;2024-02-26T00:35:53;4.40;99.90
57390;DHT22;43217;52.694;6.214;2024-02-26T00:38:19;4.30;99.90
57390;DHT22;43217;52.694;6.214;2024-02-26T00:40:45;4.30;99.90
57390;DHT22;43217;52.694;6.214;2024-02-26T00:43:10;4.30;99.90
57390;DHT22;43217;52.694;6.214;2024-02-26T00:45:36;4.30;99.90
57390;DHT22;43217;52.694;6.214;2024-02-26T00:48:02;4.30;99.90
57390;DHT22;43217;52.694;6.214;2024-02-26T00:50:31;4.30;99.90
57390;DHT22;43217;52.694;6.214;2024-02-26T00:52:56;4.30;99.90
57390;DHT22;43217;52.694;6.214;2024-02-26T00:55:22;4.20;99.90
57390;DHT22;43217;52.694;6.214;2024-02-26T00:57:48;4.30;99.90
57390;DHT22;43217;52.694;6.214;2024-02-26T01:00:14;4.20;99.90
57390;DHT22;43217;52.694;6.214;2024-02-26T01:02:40;4.20;99.90
57390;DHT22;43217;52.694;6.214;2024-02-26T01:05:07;4.30;99.90
57390;DHT22;43217;52.694;6.214;2024-02-26T01:07:35;4.20;99.90
57390;DHT22;43217;52.694;6.214;2024-02-26T01:10:04;4.20;99.90
57390;DHT22;43217;52.694;6.214;2024-02-26T01:12:31;4.20;99.90
57390;DHT22;43217;52.694;6.214;2024-02-26T01:14:57;4.20;99.90
57390;DHT22;43217;52.694;6.214;2024-02-26T01:17:23;4.20;99.90
57390;DHT22;43217;52.694;6.214;2024-02-26T01:19:49;4.20;99.90
57390;DHT22;43217;52.694;6.214;2024-02-26T01:22:14;4.20;99.90
57390;DHT22;43217;52.694;6.214;2024-02-26T01:24:40;4.20;99.90
57390;DHT22;43217;52.694;6.214;2024-02-26T01:27:06;4.20;99.90
57390;DHT22;43217;52.694;6.214;2024-02-26T01:29:33;4.20;99.90
57390;DHT22;43217;52.694;6.214;2024-02-26T01:31:59;4.20;99.90
57390;DHT22;43217;52.694;6.214;2024-02-26T01:34:24;4.20;99.90
57390;DHT22;43217;52.694;6.214;2024-02-26T01:36:50;4.20;99.90
57390;DHT22;43217;52.694;6.214;2024-02-26T01:39:15;4.20;99.90
57390;DHT22;43217;52.694;6.214;2024-02-26T01:41:41;4.20;99.90
57390;DHT22;43217;52.694;6.214;2024-02-26T01:44:07;4.10;99.90
57390;DHT22;43217;52.694;6.214;2024-02-26T01:46:34;4.20;99.90
57390;DHT22;43217;52.694;6.214;2024-02-26T01:49:01;4.20;99.90
57390;DHT22;43217;52.694;6.214;2024-02-26T01:51:28;4.10;99.90
57390;DHT22;43217;52.694;6.214;2024-02-26T01:53:54;4.10;99.90
57390;DHT22;43217;52.694;6.214;2024-02-26T01:56:20;4.10;99.90
57390;DHT22;43217;52.694;6.214;2024-02-26T01:58:46;4.10;99.90
57390;DHT22;43217;52.694;6.214;2024-02-26T02:01:15;4.10;99.90
57390;DHT22;43217;52.694;6.214;2024-02-26T02:03:42;4.00;99.90
57390;DHT22;43217;52.694;6.214;2024-02-26T02:06:08;4.00;99.90
57390;DHT22;43217;52.694;6.214;2024-02-26T02:08:34;4.00;99.90
57390;DHT22;43217;52.694;6.214;2024-02-26T02:11:00;3.90;99.90
57390;DHT22;43217;52.694;6.214;2024-02-26T02:13:26;3.90;99.90
57390;DHT22;43217;52.694;6.214;2024-02-26T02:15:52;3.90;99.90
57390;DHT22;43217;52.694;6.214;2024-02-26T02:18:18;3.90;99.90
57390;DHT22;43217;52.694;6.214;2024-02-26T02:20:44;3.90;99.90
57390;DHT22;43217;52.694;6.214;2024-02-26T02:23:10;3.90;99.90
57390;DHT22;43217;52.694;6.214;2024-02-26T02:25:35;3.90;99.90
57390;DHT22;43217;52.694;6.214;2024-02-26T02:28:01;4.00;99.90
57390;DHT22;43217;52.694;6.214;2024-02-26T02:30:29;3.90;99.90
57390;DHT22;43217;52.694;6.214;2024-02-26T02:32:57;4.00;99.90
57390;DHT22;43217;52.694;6.214;2024-02-26T02:35:24;4.00;99.90
57390;DHT22;43217;52.694;6.214;2024-02-26T02:37:52;3.90;99.90
57390;DHT22;43217;52.694;6.214;2024-02-26T02:40:18;4.00;99.90
57390;DHT22;43217;52.694;6.214;2024-02-26T02:42:43;4.00;99.90
57390;DHT22;43217;52.694;6.214;2024-02-26T02:45:09;4.00;99.90
57390;DHT22;43217;52.694;6.214;2024-02-26T02:47:38;4.00;99.90
57390;DHT22;43217;52.694;6.214;2024-02-26T02:50:04;4.00;99.90
57390;DHT22;43217;52.694;6.214;2024-02-26T02:52:30;4.00;99.90
57390;DHT22;43217;52.694;6.214;2024-02-26T02:54:56;4.00;99.90
57390;DHT22;43217;52.694;6.214;2024-02-26T02:57:22;4.00;99.90
57390;DHT22;43217;52.694;6.214;2024-02-26T02:59:47;4.00;99.90
57390;DHT22;43217;52.694;6.214;2024-02-26T03:02:13;4.00;99.90
57390;DHT22;43217;52.694;6.214;2024-02-26T03:04:39;4.00;99.90
57390;DHT22;43217;52.694;6.214;2024-02-26T03:07:04;4.00;99.90
57390;DHT22;43217;52.694;6.214;2024-02-26T03:09:30;3.90;99.90
57390;DHT22;43217;52.694;6.214;2024-02-26T03:11:55;3.90;99.90
57390;DHT22;43217;52.694;6.214;2024-02-26T03:14:21;4.00;99.90
57390;DHT22;43217;52.694;6.214;2024-02-26T03:16:47;4.00;99.90
57390;DHT22;43217;52.694;6.214;2024-02-26T03:19:15;3.90;99.90
57390;DHT22;43217;52.694;6.214;2024-02-26T03:21:42;4.00;99.90
57390;DHT22;43217;52.694;6.214;2024-02-26T03:24:07;4.00;99.90
57390;DHT22;43217;52.694;6.214;2024-02-26T03:26:36;4.00;99.90
57390;DHT22;43217;52.694;6.214;2024-02-26T03:29:01;4.00;99.90
57390;DHT22;43217;52.694;6.214;2024-02-26T03:31:28;4.00;99.90
57390;DHT22;43217;52.694;6.214;2024-02-26T03:33:53;4.10;99.90
57390;DHT22;43217;52.694;6.214;2024-02-26T03:36:19;4.10;99.90
57390;DHT22;43217;52.694;6.214;2024-02-26T03:38:45;4.10;99.90
57390;DHT22;43217;52.694;6.214;2024-02-26T03:41:11;4.10;99.90
57390;DHT22;43217;52.694;6.214;2024-02-26T03:43:36;4.10;99.90
57390;DHT22;43217;52.694;6.214;2024-02-26T03:46:02;4.10;99.90
57390;DHT22;43217;52.694;6.214;2024-02-26T03:48:27;4.10;99.90
57390;DHT22;43217;52.694;6.214;2024-02-26T03:50:53;4.10;99.90
57390;DHT22;43217;52.694;6.214;2024-02-26T03:53:18;4.10;99.90
57390;DHT22;43217;52.694;6.214;2024-02-26T03:55:44;4.10;99.90
57390;DHT22;43217;52.694;6.214;2024-02-26T03:58:12;4.10;99.90
57390;DHT22;43217;52.694;6.214;2024-02-26T04:00:38;4.10;99.90
57390;DHT22;43217;52.694;6.214;2024-02-26T04:03:03;4.10;99.90
57390;DHT22;43217;52.694;6.214;2024-02-26T04:05:29;4.10;99.90
57390;DHT22;43217;52.694;6.214;2024-02-26T04:07:54;4.10;99.90
57390;DHT22;43217;52.694;6.214;2024-02-26T04:10:20;4.10;99.90
57390;DHT22;43217;52.694;6.214;2024-02-26T04:12:46;4.10;99.90
57390;DHT22;43217;52.694;6.214;2024-02-26T04:15:12;4.10;99.90
57390;DHT22;43217;52.694;6.214;2024-02-26T04:17:38;4.10;99.90
57390;DHT22;43217;52.694;6.214;2024-02-26T04:20:04;4.10;99.90
57390;DHT22;43217;52.694;6.214;2024-02-26T04:22:33;4.10;99.90
57390;DHT22;43217;52.694;6.214;2024-02-26T04:24:58;4.10;99.90
57390;DHT22;43217;52.694;6.214;2024-02-26T04:27:24;4.10;99.90
57390;DHT22;43217;52.694;6.214;2024-02-26T04:29:49;4.10;99.90
57390;DHT22;43217;52.694;6.214;2024-02-26T04:32:15;4.10;99.90
57390;DHT22;43217;52.694;6.214;2024-02-26T04:34:41;4.10;99.90
57390;DHT22;43217;52.694;6.214;2024-02-26T04:37:07;4.10;99.90
57390;DHT22;43217;52.694;6.214;2024-02-26T04:39:33;4.10;99.90
57390;DHT22;43217;52.694;6.214;2024-02-26T04:41:58;4.10;99.90
57390;DHT22;43217;52.694;6.214;2024-02-26T04:44:24;4.10;99.90
57390;DHT22;43217;52.694;6.214;2024-02-26T04:46:50;4.20;99.90
57390;DHT22;43217;52.694;6.214;2024-02-26T04:49:15;4.20;99.90
57390;DHT22;43217;52.694;6.214;2024-02-26T04:51:41;4.20;99.90
57390;DHT22;43217;52.694;6.214;2024-02-26T04:54:07;4.20;99.90
57390;DHT22;43217;52.694;6.214;2024-02-26T04:56:32;4.20;99.90
57390;DHT22;43217;52.694;6.214;2024-02-26T04:58:58;4.20;99.90
57390;DHT22;43217;52.694;6.214;2024-02-26T05:01:23;4.20;99.90
57390;DHT22;43217;52.694;6.214;2024-02-26T05:03:49;4.20;99.90
57390;DHT22;43217;52.694;6.214;2024-02-26T05:06:15;4.20;99.90
57390;DHT22;43217;52.694;6.214;2024-02-26T05:08:40;4.20;99.90
57390;DHT22;43217;52.694;6.214;2024-02-26T05:11:06;4.20;99.90
57390;DHT22;43217;52.694;6.214;2024-02-26T05:13:32;4.20;99.90
57390;DHT22;43217;52.694;6.214;2024-02-26T05:15:57;4.20;99.90
57390;DHT22;43217;52.694;6.214;2024-02-26T05:18:23;4.30;99.90
57390;DHT22;43217;52.694;6.214;2024-02-26T05:20:49;4.30;99.90
57390;DHT22;43217;52.694;6.214;2024-02-26T05:23:15;4.30;99.90
57390;DHT22;43217;52.694;6.214;2024-02-26T05:25:40;4.30;99.90
57390;DHT22;43217;52.694;6.214;2024-02-26T05:28:06;4.30;99.90
57390;DHT22;43217;52.694;6.214;2024-02-26T05:30:32;4.40;99.90
57390;DHT22;43217;52.694;6.214;2024-02-26T05:32:58;4.40;99.90
57390;DHT22;43217;52.694;6.214;2024-02-26T05:35:25;4.40;99.90
57390;DHT22;43217;52.694;6.214;2024-02-26T05:37:51;4.40;99.90
57390;DHT22;43217;52.694;6.214;2024-02-26T05:40:17;4.40;99.90
57390;DHT22;43217;52.694;6.214;2024-02-26T05:42:42;4.40;99.90
57390;DHT22;43217;52.694;6.214;2024-02-26T05:45:10;4.40;99.90
57390;DHT22;43217;52.694;6.214;2024-02-26T05:47:36;4.40;99.90
57390;DHT22;43217;52.694;6.214;2024-02-26T05:50:08;4.40;99.90
57390;DHT22;43217;52.694;6.214;2024-02-26T05:52:36;4.40;99.90
57390;DHT22;43217;52.694;6.214;2024-02-26T05:55:02;4.40;99.90
57390;DHT22;43217;52.694;6.214;2024-02-26T05:57:28;4.40;99.90
57390;DHT22;43217;52.694;6.214;2024-02-26T05:59:53;4.40;99.90
57390;DHT22;43217;52.694;6.214;2024-02-26T06:02:19;4.40;99.90
57390;DHT22;43217;52.694;6.214;2024-02-26T06:04:44;4.40;99.90
57390;DHT22;43217;52.694;6.214;2024-02-26T06:07:11;4.40;99.90
57390;DHT22;43217;52.694;6.214;2024-02-26T06:09:37;4.40;99.90
57390;DHT22;43217;52.694;6.214;2024-02-26T06:12:03;4.40;99.90
57390;DHT22;43217;52.694;6.214;2024-02-26T06:14:28;4.40;99.90
57390;DHT22;43217;52.694;6.214;2024-02-26T06:16:54;4.40;99.90
57390;DHT22;43217;52.694;6.214;2024-02-26T06:19:19;4.40;99.90
57390;DHT22;43217;52.694;6.214;2024-02-26T06:21:45;4.40;99.90
57390;DHT22;43217;52.694;6.214;2024-02-26T06:24:10;4.40;99.90
57390;DHT22;43217;52.694;6.214;2024-02-26T06:26:36;4.40;99.90
57390;DHT22;43217;52.694;6.214;2024-02-26T06:29:02;4.40;99.90
57390;DHT22;43217;52.694;6.214;2024-02-26T06:31:27;4.40;99.90
57390;DHT22;43217;52.694;6.214;2024-02-26T06:33:53;4.40;99.90
57390;DHT22;43217;52.694;6.214;2024-02-26T06:36:19;4.40;99.90
57390;DHT22;43217;52.694;6.214;2024-02-26T06:38:45;4.40;99.90
57390;DHT22;43217;52.694;6.214;2024-02-26T06:41:10;4.30;99.90
57390;DHT22;43217;52.694;6.214;2024-02-26T06:43:36;4.40;99.90
57390;DHT22;43217;52.694;6.214;2024-02-26T06:46:02;4.40;99.90
57390;DHT22;43217;52.694;6.214;2024-02-26T06:48:28;4.40;99.90
57390;DHT22;43217;52.694;6.214;2024-02-26T06:50:53;4.30;99.90
57390;DHT22;43217;52.694;6.214;2024-02-26T06:53:19;4.40;99.90
57390;DHT22;43217;52.694;6.214;2024-02-26T06:55:45;4.40;99.90
57390;DHT22;43217;52.694;6.214;2024-02-26T06:58:10;4.40;99.90
57390;DHT22;43217;52.694;6.214;2024-02-26T07:00:36;4.40;99.90
57390;DHT22;43217;52.694;6.214;2024-02-26T07:03:02;4.40;99.90
57390;DHT22;43217;52.694;6.214;2024-02-26T07:05:28;4.40;99.90
57390;DHT22;43217;52.694;6.214;2024-02-26T07:07:54;4.40;99.90
57390;DHT22;43217;52.694;6.214;2024-02-26T07:10:19;4.40;99.90
57390;DHT22;43217;52.694;6.214;2024-02-26T07:12:45;4.40;99.90
57390;DHT22;43217;52.694;6.214;2024-02-26T07:15:11;4.40;99.90
57390;DHT22;43217;52.694;6.214;2024-02-26T07:17:36;4.40;99.90
57390;DHT22;43217;52.694;6.214;2024-02-26T07:20:02;4.40;99.90
57390;DHT22;43217;52.694;6.214;2024-02-26T07:22:31;4.40;99.90
57390;DHT22;43217;52.694;6.214;2024-02-26T07:24:57;4.40;99.90
57390;DHT22;43217;52.694;6.214;2024-02-26T07:27:23;4.40;99.90
57390;DHT22;43217;52.694;6.214;2024-02-26T07:29:49;4.40;99.90
57390;DHT22;43217;52.694;6.214;2024-02-26T07:32:14;4.40;99.90
57390;DHT22;43217;52.694;6.214;2024-02-26T07:34:41;4.40;99.90
57390;DHT22;43217;52.694;6.214;2024-02-26T07:37:10;4.30;99.90
57390;DHT22;43217;52.694;6.214;2024-02-26T07:39:36;4.40;99.90
57390;DHT22;43217;52.694;6.214;2024-02-26T07:42:02;4.40;99.90
57390;DHT22;43217;52.694;6.214;2024-02-26T07:44:28;4.40;99.90
57390;DHT22;43217;52.694;6.214;2024-02-26T07:46:54;4.40;99.90
57390;DHT22;43217;52.694;6.214;2024-02-26T07:49:20;4.40;99.90
57390;DHT22;43217;52.694;6.214;2024-02-26T07:51:45;4.40;99.90
57390;DHT22;43217;52.694;6.214;2024-02-26T07:54:11;4.40;99.90
57390;DHT22;43217;52.694;6.214;2024-02-26T07:56:37;4.40;99.90
57390;DHT22;43217;52.694;6.214;2024-02-26T07:59:02;4.50;99.90
57390;DHT22;43217;52.694;6.214;2024-02-26T08:01:28;4.50;99.90
57390;DHT22;43217;52.694;6.214;2024-02-26T08:03:54;4.50;99.90
57390;DHT22;43217;52.694;6.214;2024-02-26T08:06:19;4.50;99.90
57390;DHT22;43217;52.694;6.214;2024-02-26T08:08:45;4.50;99.90
57390;DHT22;43217;52.694;6.214;2024-02-26T08:11:10;4.60;99.90
57390;DHT22;43217;52.694;6.214;2024-02-26T08:13:36;4.60;99.90
57390;DHT22;43217;52.694;6.214;2024-02-26T08:16:02;4.60;99.90
57390;DHT22;43217;52.694;6.214;2024-02-26T08:18:27;4.60;99.90
57390;DHT22;43217;52.694;6.214;2024-02-26T08:20:53;4.60;99.90
57390;DHT22;43217;52.694;6.214;2024-02-26T08:23:18;4.70;99.90
57390;DHT22;43217;52.694;6.214;2024-02-26T08:25:44;4.70;99.90
57390;DHT22;43217;52.694;6.214;2024-02-26T08:28:10;4.70;99.90
57390;DHT22;43217;52.694;6.214;2024-02-26T08:30:38;4.80;99.90
57390;DHT22;43217;52.694;6.214;2024-02-26T08:33:04;4.80;99.90
57390;DHT22;43217;52.694;6.214;2024-02-26T08:35:29;4.80;99.90
57390;DHT22;43217;52.694;6.214;2024-02-26T08:37:55;4.80;99.90
57390;DHT22;43217;52.694;6.214;2024-02-26T08:40:21;4.80;99.90
57390;DHT22;43217;52.694;6.214;2024-02-26T08:42:47;4.90;99.90
57390;DHT22;43217;52.694;6.214;2024-02-26T08:45:12;4.90;99.90
57390;DHT22;43217;52.694;6.214;2024-02-26T08:47:38;4.90;99.90
57390;DHT22;43217;52.694;6.214;2024-02-26T08:50:07;4.90;99.90
57390;DHT22;43217;52.694;6.214;2024-02-26T08:52:35;4.90;99.90
57390;DHT22;43217;52.694;6.214;2024-02-26T08:55:00;4.90;99.90
57390;DHT22;43217;52.694;6.214;2024-02-26T08:57:26;4.90;99.90
57390;DHT22;43217;52.694;6.214;2024-02-26T08:59:52;5.00;99.90
57390;DHT22;43217;52.694;6.214;2024-02-26T09:02:18;5.00;99.90
57390;DHT22;43217;52.694;6.214;2024-02-26T09:04:45;5.00;99.90
57390;DHT22;43217;52.694;6.214;2024-02-26T09:07:10;5.00;99.90
57390;DHT22;43217;52.694;6.214;2024-02-26T09:09:36;5.00;99.90
57390;DHT22;43217;52.694;6.214;2024-02-26T09:12:02;5.10;99.90
57390;DHT22;43217;52.694;6.214;2024-02-26T09:14:27;5.10;99.90
57390;DHT22;43217;52.694;6.214;2024-02-26T09:16:53;5.10;99.90
57390;DHT22;43217;52.694;6.214;2024-02-26T09:19:19;5.10;99.90
57390;DHT22;43217;52.694;6.214;2024-02-26T09:21:45;5.10;99.90
57390;DHT22;43217;52.694;6.214;2024-02-26T09:24:11;5.10;99.90
57390;DHT22;43217;52.694;6.214;2024-02-26T09:26:38;5.10;99.90
57390;DHT22;43217;52.694;6.214;2024-02-26T09:29:05;5.10;99.90
57390;DHT22;43217;52.694;6.214;2024-02-26T09:31:31;5.10;99.90
57390;DHT22;43217;52.694;6.214;2024-02-26T09:33:57;5.10;99.90
57390;DHT22;43217;52.694;6.214;2024-02-26T09:36:22;5.10;99.90
57390;DHT22;43217;52.694;6.214;2024-02-26T09:38:48;5.20;99.90
57390;DHT22;43217;52.694;6.214;2024-02-26T09:41:17;5.20;99.90
57390;DHT22;43217;52.694;6.214;2024-02-26T09:43:44;5.20;99.90
57390;DHT22;43217;52.694;6.214;2024-02-26T09:46:13;5.20;99.90
57390;DHT22;43217;52.694;6.214;2024-02-26T09:48:42;5.20;99.90
57390;DHT22;43217;52.694;6.214;2024-02-26T09:51:10;5.20;99.90
57390;DHT22;43217;52.694;6.214;2024-02-26T09:53:38;5.30;99.90
57390;DHT22;43217;52.694;6.214;2024-02-26T09:56:07;5.30;99.90
57390;DHT22;43217;52.694;6.214;2024-02-26T09:58:33;5.30;99.90
57390;DHT22;43217;52.694;6.214;2024-02-26T10:01:00;5.30;99.90
57390;DHT22;43217;52.694;6.214;2024-02-26T10:03:36;5.40;99.90
57390;DHT22;43217;52.694;6.214;2024-02-26T10:06:04;5.40;99.90
57390;DHT22;43217;52.694;6.214;2024-02-26T10:08:31;5.40;99.90
57390;DHT22;43217;52.694;6.214;2024-02-26T10:10:57;5.40;99.90
57390;DHT22;43217;52.694;6.214;2024-02-26T10:13:23;5.40;99.90
57390;DHT22;43217;52.694;6.214;2024-02-26T10:15:49;5.40;99.90
57390;DHT22;43217;52.694;6.214;2024-02-26T10:18:15;5.50;99.90
57390;DHT22;43217;52.694;6.214;2024-02-26T10:20:40;5.50;99.90
57390;DHT22;43217;52.694;6.214;2024-02-26T10:23:06;5.50;99.90
57390;DHT22;43217;52.694;6.214;2024-02-26T10:25:32;5.50;99.90
57390;DHT22;43217;52.694;6.214;2024-02-26T10:28:01;5.60;99.90
57390;DHT22;43217;52.694;6.214;2024-02-26T10:30:30;5.60;99.90
57390;DHT22;43217;52.694;6.214;2024-02-26T10:32:56;5.60;99.90
57390;DHT22;43217;52.694;6.214;2024-02-26T10:35:23;5.60;99.90
57390;DHT22;43217;52.694;6.214;2024-02-26T10:37:49;5.60;99.90
57390;DHT22;43217;52.694;6.214;2024-02-26T10:40:16;5.60;99.90
57390;DHT22;43217;52.694;6.214;2024-02-26T10:42:42;5.70;99.90
57390;DHT22;43217;52.694;6.214;2024-02-26T10:45:09;5.70;99.90
57390;DHT22;43217;52.694;6.214;2024-02-26T10:47:40;5.80;99.90
57390;DHT22;43217;52.694;6.214;2024-02-26T10:50:06;5.80;99.90
57390;DHT22;43217;52.694;6.214;2024-02-26T10:52:33;5.90;99.90
57390;DHT22;43217;52.694;6.214;2024-02-26T10:55:01;5.80;99.90
57390;DHT22;43217;52.694;6.214;2024-02-26T10:57:39;5.90;99.90
57390;DHT22;43217;52.694;6.214;2024-02-26T11:00:06;5.90;99.90
57390;DHT22;43217;52.694;6.214;2024-02-26T11:02:33;6.00;99.90
57390;DHT22;43217;52.694;6.214;2024-02-26T11:05:03;6.00;99.90
57390;DHT22;43217;52.694;6.214;2024-02-26T11:07:30;6.00;99.90
57390;DHT22;43217;52.694;6.214;2024-02-26T11:09:59;6.00;99.90
57390;DHT22;43217;52.694;6.214;2024-02-26T11:12:25;6.00;99.90
57390;DHT22;43217;52.694;6.214;2024-02-26T11:14:53;6.00;99.90
57390;DHT22;43217;52.694;6.214;2024-02-26T11:17:22;6.00;99.90
57390;DHT22;43217;52.694;6.214;2024-02-26T11:19:50;6.00;99.90
57390;DHT22;43217;52.694;6.214;2024-02-26T11:22:16;6.00;99.90
57390;DHT22;43217;52.694;6.214;2024-02-26T11:24:42;6.00;99.90
57390;DHT22;43217;52.694;6.214;2024-02-26T11:27:10;6.00;99.90
57390;DHT22;43217;52.694;6.214;2024-02-26T11:29:47;6.00;99.90
57390;DHT22;43217;52.694;6.214;2024-02-26T11:32:13;6.00;99.90
57390;DHT22;43217;52.694;6.214;2024-02-26T11:34:40;6.00;99.90
57390;DHT22;43217;52.694;6.214;2024-02-26T11:37:10;6.10;99.90
57390;DHT22;43217;52.694;6.214;2024-02-26T11:39:37;6.10;99.90
57390;DHT22;43217;52.694;6.214;2024-02-26T11:42:14;6.10;99.90
57390;DHT22;43217;52.694;6.214;2024-02-26T11:44:39;6.20;99.90
57390;DHT22;43217;52.694;6.214;2024-02-26T11:47:33;6.20;99.90
57390;DHT22;43217;52.694;6.214;2024-02-26T11:50:00;6.20;99.90
57390;DHT22;43217;52.694;6.214;2024-02-26T11:53:27;6.20;99.90
57390;DHT22;43217;52.694;6.214;2024-02-26T11:56:16;6.30;99.90
57390;DHT22;43217;52.694;6.214;2024-02-26T11:58:45;6.30;99.90
57390;DHT22;43217;52.694;6.214;2024-02-26T12:01:37;6.30;99.90
57390;DHT22;43217;52.694;6.214;2024-02-26T12:04:05;6.30;99.90
57390;DHT22;43217;52.694;6.214;2024-02-26T12:06:33;6.30;99.90
57390;DHT22;43217;52.694;6.214;2024-02-26T12:09:05;6.30;99.90
57390;DHT22;43217;52.694;6.214;2024-02-26T12:11:31;6.30;99.90
57390;DHT22;43217;52.694;6.214;2024-02-26T12:13:56;6.30;99.90
57390;DHT22;43217;52.694;6.214;2024-02-26T12:16:38;6.30;99.90
57390;DHT22;43217;52.694;6.214;2024-02-26T12:19:06;6.30;99.90
57390;DHT22;43217;52.694;6.214;2024-02-26T12:21:36;6.30;99.90
57390;DHT22;43217;52.694;6.214;2024-02-26T12:24:15;6.30;99.90
57390;DHT22;43217;52.694;6.214;2024-02-26T12:26:41;6.30;99.90
57390;DHT22;43217;52.694;6.214;2024-02-26T12:29:07;6.30;99.90
57390;DHT22;43217;52.694;6.214;2024-02-26T12:31:33;6.30;99.90
57390;DHT22;43217;52.694;6.214;2024-02-26T12:34:03;6.30;99.90
57390;DHT22;43217;52.694;6.214;2024-02-26T12:36:29;6.30;99.90
57390;DHT22;43217;52.694;6.214;2024-02-26T12:38:55;6.30;99.90
57390;DHT22;43217;52.694;6.214;2024-02-26T12:41:21;6.30;99.90
57390;DHT22;43217;52.694;6.214;2024-02-26T12:43:47;6.30;99.90
57390;DHT22;43217;52.694;6.214;2024-02-26T12:46:13;6.30;99.90
57390;DHT22;43217;52.694;6.214;2024-02-26T12:48:43;6.30;99.90
57390;DHT22;43217;52.694;6.214;2024-02-26T12:51:11;6.30;99.90
57390;DHT22;43217;52.694;6.214;2024-02-26T12:53:38;6.30;99.90
57390;DHT22;43217;52.694;6.214;2024-02-26T12:56:07;6.30;99.90
57390;DHT22;43217;52.694;6.214;2024-02-26T12:58:34;6.30;99.90
57390;DHT22;43217;52.694;6.214;2024-02-26T13:01:01;6.40;99.90
57390;DHT22;43217;52.694;6.214;2024-02-26T13:03:27;6.40;99.90
57390;DHT22;43217;52.694;6.214;2024-02-26T13:05:53;6.40;99.90
57390;DHT22;43217;52.694;6.214;2024-02-26T13:08:20;6.40;99.90
57390;DHT22;43217;52.694;6.214;2024-02-26T13:10:46;6.40;99.90
57390;DHT22;43217;52.694;6.214;2024-02-26T13:13:14;6.40;99.90
57390;DHT22;43217;52.694;6.214;2024-02-26T13:15:41;6.40;99.90
57390;DHT22;43217;52.694;6.214;2024-02-26T13:18:11;6.40;99.90
57390;DHT22;43217;52.694;6.214;2024-02-26T13:20:37;6.40;99.90
57390;DHT22;43217;52.694;6.214;2024-02-26T13:23:04;6.40;99.90
57390;DHT22;43217;52.694;6.214;2024-02-26T13:25:31;6.40;99.90
57390;DHT22;43217;52.694;6.214;2024-02-26T13:28:12;6.40;99.90
57390;DHT22;43217;52.694;6.214;2024-02-26T13:30:39;6.40;99.90
57390;DHT22;43217;52.694;6.214;2024-02-26T13:33:12;6.40;99.90
57390;DHT22;43217;52.694;6.214;2024-02-26T13:35:39;6.40;99.90
57390;DHT22;43217;52.694;6.214;2024-02-26T13:38:05;6.40;99.90
57390;DHT22;43217;52.694;6.214;2024-02-26T13:40:32;6.40;99.90
57390;DHT22;43217;52.694;6.214;2024-02-26T13:42:58;6.50;99.90
57390;DHT22;43217;52.694;6.214;2024-02-26T13:45:23;6.50;99.90
57390;DHT22;43217;52.694;6.214;2024-02-26T13:47:49;6.40;99.90
57390;DHT22;43217;52.694;6.214;2024-02-26T13:50:14;6.40;99.90
57390;DHT22;43217;52.694;6.214;2024-02-26T13:52:41;6.40;99.90
57390;DHT22;43217;52.694;6.214;2024-02-26T13:55:07;6.50;99.90
57390;DHT22;43217;52.694;6.214;2024-02-26T13:57:33;6.50;99.90
57390;DHT22;43217;52.694;6.214;2024-02-26T13:59:58;6.50;99.90
57390;DHT22;43217;52.694;6.214;2024-02-26T14:02:24;6.50;99.90
57390;DHT22;43217;52.694;6.214;2024-02-26T14:04:50;6.50;99.90
57390;DHT22;43217;52.694;6.214;2024-02-26T14:07:15;6.50;99.90
57390;DHT22;43217;52.694;6.214;2024-02-26T14:09:42;6.50;99.90
57390;DHT22;43217;52.694;6.214;2024-02-26T14:12:09;6.50;99.90
57390;DHT22;43217;52.694;6.214;2024-02-26T14:14:34;6.50;99.90
57390;DHT22;43217;52.694;6.214;2024-02-26T14:17:03;6.50;99.90
57390;DHT22;43217;52.694;6.214;2024-02-26T14:19:29;6.40;99.90
57390;DHT22;43217;52.694;6.214;2024-02-26T14:21:55;6.40;99.90
57390;DHT22;43217;52.694;6.214;2024-02-26T14:24:20;6.40;99.90
57390;DHT22;43217;52.694;6.214;2024-02-26T14:26:46;6.30;99.90
57390;DHT22;43217;52.694;6.214;2024-02-26T14:29:11;6.30;99.90
57390;DHT22;43217;52.694;6.214;2024-02-26T14:31:37;6.30;99.90
57390;DHT22;43217;52.694;6.214;2024-02-26T14:34:03;6.30;99.90
57390;DHT22;43217;52.694;6.214;2024-02-26T14:36:28;6.30;99.90
57390;DHT22;43217;52.694;6.214;2024-02-26T14:38:54;6.30;99.90
57390;DHT22;43217;52.694;6.214;2024-02-26T14:41:20;6.30;99.90
57390;DHT22;43217;52.694;6.214;2024-02-26T14:43:46;6.20;99.90
57390;DHT22;43217;52.694;6.214;2024-02-26T14:46:11;6.20;99.90
57390;DHT22;43217;52.694;6.214;2024-02-26T14:48:37;6.20;99.90
57390;DHT22;43217;52.694;6.214;2024-02-26T14:51:03;6.20;99.90
57390;DHT22;43217;52.694;6.214;2024-02-26T14:53:32;6.20;99.90
57390;DHT22;43217;52.694;6.214;2024-02-26T14:55:57;6.20;99.90
57390;DHT22;43217;52.694;6.214;2024-02-26T14:58:23;6.20;99.90
57390;DHT22;43217;52.694;6.214;2024-02-26T15:00:49;6.20;99.90
57390;DHT22;43217;52.694;6.214;2024-02-26T15:03:15;6.20;99.90
57390;DHT22;43217;52.694;6.214;2024-02-26T15:05:40;6.20;99.90
57390;DHT22;43217;52.694;6.214;2024-02-26T15:08:06;6.20;99.90
57390;DHT22;43217;52.694;6.214;2024-02-26T15:10:34;6.10;99.90
57390;DHT22;43217;52.694;6.214;2024-02-26T15:13:00;6.10;99.90
57390;DHT22;43217;52.694;6.214;2024-02-26T15:15:25;6.00;99.90
57390;DHT22;43217;52.694;6.214;2024-02-26T15:17:51;6.00;99.90
57390;DHT22;43217;52.694;6.214;2024-02-26T15:20:17;6.00;99.90
57390;DHT22;43217;52.694;6.214;2024-02-26T15:22:43;6.00;99.90
57390;DHT22;43217;52.694;6.214;2024-02-26T15:25:08;6.10;99.90
57390;DHT22;43217;52.694;6.214;2024-02-26T15:27:35;6.00;99.90
57390;DHT22;43217;52.694;6.214;2024-02-26T15:30:01;6.00;99.90
57390;DHT22;43217;52.694;6.214;2024-02-26T15:32:27;6.00;99.90
57390;DHT22;43217;52.694;6.214;2024-02-26T15:34:53;6.00;99.90
57390;DHT22;43217;52.694;6.214;2024-02-26T15:37:19;6.00;99.90
57390;DHT22;43217;52.694;6.214;2024-02-26T15:39:45;6.00;99.90
57390;DHT22;43217;52.694;6.214;2024-02-26T15:42:11;6.00;99.90